Time;durP1;ratioP1;P1;durP2;ratioP2;P2;SDS_P1;SDS_P2;PMS_P1;PMS_P2;Temp;Humidity;BMP_temperature;BMP_pressure;BME280_temperature;BME280_humidity;BME280_pressure;Samples;Min_cycle;Max_cycle;Signal;HPM_P1;HPM_P2
2023/12/13 05:42:45;;;;;;;;;;;;;;;2.29;100.00;99944.89;106830;1279;22521;-54
2023/12/13 05:45:12;;;;;;;;;;;;;;;2.27;100.00;99947.77;109593;1272;23282;-53
2023/12/13 05:47:38;;;;;;;;;;;;;;;2.28;100.00;99952.79;108292;1269;24400;-54
2023/12/13 05:50:05;;;;;;;;;;;;;;;2.33;100.00;99958.92;108871;1269;22507;-48
2023/12/13 05:52:32;;;;;;;;;;;;;;;2.34;100.00;99957.25;107783;1260;25211;-54
2023/12/13 05:54:59;;;;;;;;;;;;;;;2.33;100.00;99953.77;108537;1271;22641;-53
2023/12/13 05:57:25;;;;;;;;;;;;;;;2.34;100.00;99952.08;108155;1269;22603;-51
2023/12/13 05:59:52;;;;;;;;;;;;;;;2.38;100.00;99952.88;108591;1277;23202;-54
2023/12/13 06:02:19;;;;;;;;;;;;;;;2.40;100.00;99957.42;109205;1270;23453;-48
2023/12/13 06:04:47;;;;;;;;;;;;;;;2.41;100.00;99961.22;109498;1273;22543;-47
2023/12/13 06:07:16;;;;;;;;;;;;;;;2.40;100.00;99958.95;109322;1264;23271;-54
2023/12/13 06:09:43;;;;;;;;;;;;;;;2.42;100.00;99956.42;109488;1273;22527;-53
2023/12/13 06:12:09;;;;;;;;;;;;;;;2.48;100.00;99947.64;109409;1270;22538;-48
2023/12/13 06:14:36;;;;;;;;;;;;;;;2.56;100.00;99951.66;109488;1280;22489;-48
2023/12/13 06:17:03;;;;;;;;;;;;;;;2.65;100.00;99956.00;109088;1269;22563;-48
2023/12/13 06:19:32;;;;;;;;;;;;;;;2.68;100.00;99963.66;109126;1273;22550;-54
2023/12/13 06:21:59;;;;;;;;;;;;;;;2.67;100.00;99963.31;109473;1273;22635;-55
2023/12/13 06:24:26;;;;;;;;;;;;;;;2.70;100.00;99968.72;109622;1274;22458;-54
2023/12/13 06:26:56;;;;;;;;;;;;;;;2.75;100.00;99967.11;108904;1277;23303;-54
2023/12/13 06:29:28;;;;;;;;;;;;;;;2.75;100.00;99971.27;109329;1273;23760;-47
2023/12/13 06:47:05;;;;;;;;;;;;;;;2.39;100.00;99996.31;108954;1279;22489;-48
2023/12/13 06:50:33;;;;;;;;;;;;;;;2.36;100.00;100005.00;109620;1273;23002;-47
2023/12/13 06:53:56;;;;;;;;;;;;;;;2.42;100.00;100008.59;109245;1279;22510;-49
2023/12/13 06:56:40;;;;;;;;;;;;;;;2.50;100.00;100011.55;109847;1270;23306;-56
2023/12/13 06:59:09;;;;;;;;;;;;;;;2.57;100.00;100005.90;109690;1272;24926;-50
2023/12/13 07:01:42;;;;;;;;;;;;;;;2.61;100.00;100007.23;109108;1279;23193;-57
2023/12/13 07:04:10;;;;;;;;;;;;;;;2.64;100.00;100004.39;109763;1272;22974;-49
2023/12/13 07:06:43;;;;;;;;;;;;;;;2.68;100.00;99998.48;108974;1274;22687;-47
2023/12/13 07:09:19;;;;;;;;;;;;;;;2.68;100.00;99995.54;109040;1272;23141;-48
2023/12/13 07:11:52;;;;;;;;;;;;;;;2.72;100.00;99995.97;108709;1277;22538;-48
2023/12/13 07:14:20;;;;;;;;;;;;;;;2.76;100.00;99996.27;109558;1273;22503;-48
2023/12/13 07:16:47;;;;;;;;;;;;;;;2.81;100.00;99993.98;109323;1270;22516;-58
2023/12/13 07:19:14;;;;;;;;;;;;;;;2.89;100.00;99995.73;109163;1270;22538;-48
2023/12/13 07:21:41;;;;;;;;;;;;;;;2.94;100.00;99991.02;109713;1274;22499;-47
2023/12/13 07:24:09;;;;;;;;;;;;;;;2.93;100.00;99990.84;109671;1272;22535;-58
2023/12/13 07:26:36;;;;;;;;;;;;;;;2.96;100.00;99989.73;109812;1270;23473;-59
2023/12/13 07:29:03;;;;;;;;;;;;;;;3.02;100.00;99999.52;109362;1272;22563;-48
2023/12/13 07:31:30;;;;;;;;;;;;;;;3.09;100.00;100002.45;109977;1273;22441;-57
2023/12/13 07:33:57;;;;;;;;;;;;;;;3.16;100.00;100005.56;109035;1268;23036;-48
2023/12/13 07:36:30;;;;;;;;;;;;;;;3.20;100.00;100007.58;109370;1270;24206;-60
2023/12/13 07:38:57;;;;;;;;;;;;;;;3.19;100.00;100007.72;109053;1275;22519;-48
2023/12/13 07:41:25;;;;;;;;;;;;;;;3.17;100.00;100004.73;109676;1273;22546;-48
2023/12/13 07:43:52;;;;;;;;;;;;;;;3.19;100.00;100006.50;109771;1273;22498;-49
2023/12/13 07:46:18;;;;;;;;;;;;;;;3.27;100.00;100008.09;109873;1272;22555;-58
2023/12/13 07:48:45;;;;;;;;;;;;;;;3.35;100.00;100009.30;109913;1267;22416;-59
2023/12/13 07:51:12;;;;;;;;;;;;;;;3.38;100.00;100017.66;109300;1266;22533;-49
2023/12/13 07:53:39;;;;;;;;;;;;;;;3.39;100.00;100031.48;108458;1271;22505;-59
2023/12/13 07:56:06;;;;;;;;;;;;;;;3.41;100.00;100038.77;109957;1274;22502;-60
2023/12/13 07:58:34;;;;;;;;;;;;;;;3.40;100.00;100040.63;109319;1266;23046;-48
2023/12/13 08:01:01;;;;;;;;;;;;;;;3.35;100.00;100035.70;109947;1272;22446;-48
2023/12/13 08:03:29;;;;;;;;;;;;;;;3.33;100.00;100037.20;109733;1270;22458;-48
2023/12/13 08:05:57;;;;;;;;;;;;;;;3.35;100.00;100042.60;109373;1272;22523;-49
2023/12/13 08:08:25;;;;;;;;;;;;;;;3.41;100.00;100041.69;109304;1269;22503;-59
2023/12/13 08:10:53;;;;;;;;;;;;;;;3.46;100.00;100044.60;109853;1270;23258;-59
2023/12/13 08:13:21;;;;;;;;;;;;;;;3.49;100.00;100047.58;109105;1274;22558;-50
2023/12/13 08:16:00;;;;;;;;;;;;;;;3.48;100.00;100052.23;109009;1276;22531;-49
2023/12/13 08:18:43;;;;;;;;;;;;;;;3.45;100.00;100052.83;108630;1265;23331;-58
2023/12/13 08:21:10;;;;;;;;;;;;;;;3.45;100.00;100049.39;109347;1267;22531;-48
2023/12/13 08:23:37;;;;;;;;;;;;;;;3.48;100.00;100048.94;109169;1275;25204;-59
2023/12/13 08:26:04;;;;;;;;;;;;;;;3.55;100.00;100042.05;108506;1269;22502;-58
2023/12/13 08:28:31;;;;;;;;;;;;;;;3.62;100.00;100040.66;109712;1270;22492;-57
2023/12/13 08:30:59;;;;;;;;;;;;;;;3.66;100.00;100031.81;109701;1274;22513;-48
2023/12/13 08:33:48;;;;;;;;;;;;;;;3.73;100.00;100020.57;109231;1277;23146;-57
2023/12/13 08:36:15;;;;;;;;;;;;;;;3.74;100.00;100013.86;108902;1265;22530;-47
2023/12/13 08:38:42;;;;;;;;;;;;;;;3.74;100.00;100014.39;109310;1267;22520;-58
2023/12/13 08:41:09;;;;;;;;;;;;;;;3.76;100.00;100003.72;109664;1261;23101;-58
2023/12/13 08:43:41;;;;;;;;;;;;;;;3.80;100.00;99996.23;109885;1273;22862;-58
2023/12/13 08:46:08;;;;;;;;;;;;;;;3.84;100.00;99996.84;109733;1270;23460;-58
2023/12/13 08:48:35;;;;;;;;;;;;;;;3.86;100.00;99996.70;109287;1271;23014;-58
2023/12/13 08:51:03;;;;;;;;;;;;;;;3.88;100.00;99991.39;109837;1272;22501;-58
2023/12/13 08:53:30;;;;;;;;;;;;;;;3.91;100.00;99987.16;109839;1270;23042;-48
2023/12/13 08:55:57;;;;;;;;;;;;;;;3.92;100.00;99983.37;109250;1272;23052;-49
2023/12/13 08:58:28;;;;;;;;;;;;;;;3.89;100.00;99978.48;107970;1277;22518;-48
2023/12/13 09:00:55;;;;;;;;;;;;;;;3.81;100.00;99977.80;109841;1265;22536;-56
2023/12/13 09:03:23;;;;;;;;;;;;;;;3.77;100.00;99985.44;109017;1276;22525;-47
2023/12/13 09:05:53;;;;;;;;;;;;;;;3.73;100.00;99994.70;109692;1263;22498;-57
2023/12/13 09:08:19;;;;;;;;;;;;;;;3.77;100.00;99994.09;108904;1267;23213;-48
2023/12/13 09:10:47;;;;;;;;;;;;;;;3.80;100.00;99992.60;109691;1273;22472;-59
2023/12/13 09:13:26;;;;;;;;;;;;;;;3.82;100.00;99984.70;109638;1273;23716;-48
2023/12/13 09:16:21;;;;;;;;;;;;;;;3.86;100.00;99973.73;109418;1272;22539;-57
2023/12/13 09:19:17;;;;;;;;;;;;;;;3.94;100.00;99968.94;109730;1273;22470;-58
2023/12/13 09:22:17;;;;;;;;;;;;;;;4.00;100.00;99961.11;109437;1274;22624;-48
2023/12/13 09:28:53;;;;;;;;;;;;;;;4.04;100.00;99940.99;109742;1272;22462;-47
2023/12/13 09:31:37;;;;;;;;;;;;;;;3.99;100.00;99938.65;109898;1272;23827;-48
2023/12/13 09:34:10;;;;;;;;;;;;;;;3.96;100.00;99932.91;109460;1272;22542;-48
2023/12/13 09:36:43;;;;;;;;;;;;;;;3.95;100.00;99930.99;108750;1272;22491;-46
2023/12/13 09:39:15;;;;;;;;;;;;;;;3.93;100.00;99930.95;109032;1262;22514;-49
2023/12/13 09:41:53;;;;;;;;;;;;;;;3.90;100.00;99932.95;107619;1279;24333;-59
2023/12/13 09:44:21;;;;;;;;;;;;;;;3.86;100.00;99935.10;109793;1268;22546;-48
2023/12/13 09:46:50;;;;;;;;;;;;;;;3.81;100.00;99938.80;109660;1265;22540;-57
2023/12/13 09:49:17;;;;;;;;;;;;;;;3.75;100.00;99935.73;109168;1273;22493;-47
2023/12/13 09:51:59;;;;;;;;;;;;;;;3.73;100.00;99933.80;109671;1272;22909;-48
2023/12/13 09:54:25;;;;;;;;;;;;;;;3.70;100.00;99934.41;109935;1275;22470;-48
2023/12/13 09:56:52;;;;;;;;;;;;;;;3.66;100.00;99934.34;109528;1275;23240;-47
2023/12/13 09:59:19;;;;;;;;;;;;;;;3.64;100.00;99932.55;109411;1270;22622;-58
2023/12/13 10:01:51;;;;;;;;;;;;;;;3.65;100.00;99936.22;108949;1275;22538;-57
2023/12/13 10:04:26;;;;;;;;;;;;;;;3.65;100.00;99940.00;109643;1267;23051;-58
2023/12/13 10:06:53;;;;;;;;;;;;;;;3.66;100.00;99941.41;109315;1276;22487;-48
2023/12/13 10:09:20;;;;;;;;;;;;;;;3.65;100.00;99939.84;108867;1273;23027;-58
2023/12/13 10:11:47;;;;;;;;;;;;;;;3.67;100.00;99941.07;109799;1272;23034;-58
2023/12/13 10:14:14;;;;;;;;;;;;;;;3.72;100.00;99946.89;109063;1274;22504;-58
2023/12/13 10:16:40;;;;;;;;;;;;;;;3.76;100.00;99945.40;109737;1275;22427;-58
2023/12/13 10:19:07;;;;;;;;;;;;;;;3.78;100.00;99955.11;109757;1272;22494;-49
2023/12/13 10:21:34;;;;;;;;;;;;;;;3.77;100.00;99955.79;109831;1270;22518;-49
2023/12/13 10:24:01;;;;;;;;;;;;;;;3.75;100.00;99953.34;109466;1270;22497;-47
2023/12/13 10:26:32;;;;;;;;;;;;;;;3.72;100.00;99951.39;109902;1267;22394;-57
2023/12/13 10:29:01;;;;;;;;;;;;;;;3.72;100.00;99951.90;108381;1265;313413;-59
2023/12/13 10:31:28;;;;;;;;;;;;;;;3.76;100.00;99949.02;109064;1270;24220;-57
2023/12/13 10:33:55;;;;;;;;;;;;;;;3.78;100.00;99944.77;109509;1275;22729;-58
2023/12/13 10:36:22;;;;;;;;;;;;;;;3.77;100.00;99935.58;108406;1270;22500;-57
2023/12/13 10:38:51;;;;;;;;;;;;;;;3.76;100.00;99938.84;109838;1272;22430;-58
2023/12/13 10:41:20;;;;;;;;;;;;;;;3.77;100.00;99943.52;109210;1274;22521;-48
2023/12/13 10:43:47;;;;;;;;;;;;;;;3.78;100.00;99940.80;109929;1262;23022;-48
2023/12/13 10:46:14;;;;;;;;;;;;;;;3.80;100.00;99940.48;109913;1270;22457;-58
2023/12/13 10:48:41;;;;;;;;;;;;;;;3.83;100.00;99939.00;109432;1273;23391;-47
2023/12/13 10:51:08;;;;;;;;;;;;;;;3.81;100.00;99936.39;109173;1270;22477;-47
2023/12/13 10:53:37;;;;;;;;;;;;;;;3.76;100.00;99938.17;108761;1272;22536;-59
2023/12/13 10:56:12;;;;;;;;;;;;;;;3.73;100.00;99940.70;108251;1278;22524;-48
2023/12/13 10:58:39;;;;;;;;;;;;;;;3.71;100.00;99938.58;109936;1266;22954;-47
2023/12/13 11:01:07;;;;;;;;;;;;;;;3.70;100.00;99941.66;109827;1275;22469;-47
2023/12/13 11:03:39;;;;;;;;;;;;;;;3.71;100.00;99951.34;109914;1272;22432;-48
2023/12/13 11:06:06;;;;;;;;;;;;;;;3.67;100.00;99956.08;109654;1272;23133;-48
2023/12/13 11:08:39;;;;;;;;;;;;;;;3.61;100.00;99951.30;109768;1272;22414;-48
2023/12/13 11:11:07;;;;;;;;;;;;;;;3.58;100.00;99948.10;109662;1279;22450;-47
2023/12/13 11:13:52;;;;;;;;;;;;;;;3.58;100.00;99944.33;109378;1273;23505;-58
2023/12/13 11:16:20;;;;;;;;;;;;;;;3.61;100.00;99936.48;109702;1270;23233;-58
2023/12/13 11:19:11;;;;;;;;;;;;;;;3.62;100.00;99937.85;109637;1277;22481;-48
2023/12/13 11:21:57;;;;;;;;;;;;;;;3.56;100.00;99935.83;109743;1275;22442;-47
2023/12/13 11:24:33;;;;;;;;;;;;;;;3.53;100.00;99935.59;109825;1272;22454;-48
2023/12/13 11:27:00;;;;;;;;;;;;;;;3.53;100.00;99932.48;109685;1275;23296;-55
2023/12/13 11:29:39;;;;;;;;;;;;;;;3.55;100.00;99932.34;109889;1269;22428;-56
2023/12/13 11:32:24;;;;;;;;;;;;;;;3.55;100.00;99934.44;109898;1272;22435;-56
2023/12/13 11:34:52;;;;;;;;;;;;;;;3.53;100.00;99933.15;109726;1276;22489;-56
2023/12/13 11:37:20;;;;;;;;;;;;;;;3.48;100.00;99936.85;109704;1265;22440;-56
2023/12/13 11:39:46;;;;;;;;;;;;;;;3.46;100.00;99930.95;109848;1276;22649;-55
2023/12/13 11:42:15;;;;;;;;;;;;;;;3.43;100.00;99928.80;109826;1278;22531;-47
2023/12/13 11:44:42;;;;;;;;;;;;;;;3.37;100.00;99929.89;109954;1267;22448;-51
2023/12/13 11:47:10;;;;;;;;;;;;;;;3.33;100.00;99922.55;109953;1273;22415;-57
2023/12/13 11:49:37;;;;;;;;;;;;;;;3.29;100.00;99912.80;109910;1274;23188;-56
2023/12/13 11:52:04;;;;;;;;;;;;;;;3.26;100.00;99910.85;110010;1278;23039;-47
2023/12/13 11:54:32;;;;;;;;;;;;;;;3.22;100.00;99911.95;108764;1273;24203;-53
2023/12/13 11:56:59;;;;;;;;;;;;;;;3.15;100.00;99911.62;107778;1270;22603;-48
2023/12/13 11:59:26;;;;;;;;;;;;;;;3.11;100.00;99919.95;107980;1279;23349;-56
2023/12/13 12:01:52;;;;;;;;;;;;;;;3.08;100.00;99929.19;109774;1278;22529;-55
2023/12/13 12:04:19;;;;;;;;;;;;;;;3.09;100.00;99926.30;109987;1279;22502;-47
2023/12/13 12:06:49;;;;;;;;;;;;;;;3.11;100.00;99919.79;109880;1271;22517;-48
2023/12/13 12:09:20;;;;;;;;;;;;;;;3.13;100.00;99918.96;108792;1275;22535;-50
2023/12/13 12:11:51;;;;;;;;;;;;;;;3.14;100.00;99916.42;109821;1279;22439;-47
2023/12/13 12:14:18;;;;;;;;;;;;;;;3.14;100.00;99908.48;109863;1266;22497;-48
2023/12/13 12:16:46;;;;;;;;;;;;;;;3.13;100.00;99912.06;109847;1274;22433;-49
2023/12/13 12:19:13;;;;;;;;;;;;;;;3.13;100.00;99908.81;109859;1272;22443;-56
2023/12/13 12:21:42;;;;;;;;;;;;;;;3.12;100.00;99902.05;109868;1276;22485;-55
2023/12/13 12:24:47;;;;;;;;;;;;;;;3.10;100.00;99897.54;109780;1279;22445;-57
2023/12/13 12:27:24;;;;;;;;;;;;;;;3.07;100.00;99904.87;109770;1279;22609;-55
2023/12/13 12:29:51;;;;;;;;;;;;;;;3.06;100.00;99905.01;109983;1269;22819;-49
2023/12/13 12:32:19;;;;;;;;;;;;;;;3.06;100.00;99908.10;108569;1272;25407;-48
2023/12/13 12:34:47;;;;;;;;;;;;;;;3.05;100.00;99910.17;109917;1273;23407;-49
2023/12/13 12:37:17;;;;;;;;;;;;;;;3.06;100.00;99907.41;109993;1273;22425;-47
2023/12/13 12:39:44;;;;;;;;;;;;;;;3.06;100.00;99910.00;109967;1260;23003;-54
2023/12/13 12:42:12;;;;;;;;;;;;;;;3.04;100.00;99911.00;109723;1279;22596;-49
2023/12/13 12:44:38;;;;;;;;;;;;;;;3.01;100.00;99910.56;109980;1265;22533;-48
2023/12/13 12:47:05;;;;;;;;;;;;;;;2.96;100.00;99908.74;109970;1264;22435;-49
2023/12/13 12:49:32;;;;;;;;;;;;;;;2.93;100.00;99910.39;109962;1279;22517;-48
2023/12/13 12:52:00;;;;;;;;;;;;;;;2.91;100.00;99912.41;109742;1273;22492;-48
2023/12/13 12:54:27;;;;;;;;;;;;;;;2.89;100.00;99918.55;109900;1273;22447;-47
2023/12/13 12:56:54;;;;;;;;;;;;;;;2.86;100.00;99917.29;109461;1269;23122;-56
2023/12/13 12:59:22;;;;;;;;;;;;;;;2.86;100.00;99911.77;109874;1274;23081;-47
2023/12/13 13:01:49;;;;;;;;;;;;;;;2.85;100.00;99912.27;109960;1278;22383;-48
2023/12/13 13:04:15;;;;;;;;;;;;;;;2.87;100.00;99909.37;109860;1269;23390;-52
2023/12/13 13:06:44;;;;;;;;;;;;;;;2.87;100.00;99909.89;109763;1266;22932;-47
2023/12/13 13:09:10;;;;;;;;;;;;;;;2.87;100.00;99906.98;109859;1272;22658;-55
2023/12/13 13:11:37;;;;;;;;;;;;;;;2.83;100.00;99905.49;109892;1278;22424;-55
2023/12/13 13:14:04;;;;;;;;;;;;;;;2.80;100.00;99907.67;110007;1271;22462;-49
2023/12/13 13:16:35;;;;;;;;;;;;;;;2.77;100.00;99916.02;110013;1268;23133;-55
2023/12/13 13:19:03;;;;;;;;;;;;;;;2.77;100.00;99913.59;109867;1278;22488;-47
2023/12/13 13:21:30;;;;;;;;;;;;;;;2.76;100.00;99922.02;109940;1278;23242;-54
2023/12/13 13:23:57;;;;;;;;;;;;;;;2.73;100.00;99917.80;109630;1272;23741;-54
2023/12/13 13:26:24;;;;;;;;;;;;;;;2.73;100.00;99914.56;109982;1272;23635;-54
2023/12/13 13:28:53;;;;;;;;;;;;;;;2.72;100.00;99908.48;110016;1278;23344;-55
2023/12/13 13:31:21;;;;;;;;;;;;;;;2.71;100.00;99903.46;109963;1278;22443;-54
2023/12/13 13:33:48;;;;;;;;;;;;;;;2.68;100.00;99907.20;109999;1267;22403;-55
2023/12/13 13:36:15;;;;;;;;;;;;;;;2.65;100.00;99906.59;109959;1272;22516;-55
2023/12/13 13:38:41;;;;;;;;;;;;;;;2.63;100.00;99905.52;109905;1277;23361;-55
2023/12/13 13:41:08;;;;;;;;;;;;;;;2.62;100.00;99902.56;109963;1279;22600;-54
2023/12/13 13:43:35;;;;;;;;;;;;;;;2.58;100.00;99905.73;110034;1279;22440;-55
2023/12/13 13:46:02;;;;;;;;;;;;;;;2.54;100.00;99909.24;110017;1279;22422;-56
2023/12/13 13:48:30;;;;;;;;;;;;;;;2.50;100.00;99911.71;110008;1279;22485;-55
2023/12/13 13:50:57;;;;;;;;;;;;;;;2.47;100.00;99914.04;110048;1279;22412;-48
2023/12/13 13:53:25;;;;;;;;;;;;;;;2.46;100.00;99920.38;109953;1279;22457;-48
2023/12/13 13:55:52;;;;;;;;;;;;;;;2.45;100.00;99925.17;110031;1279;22427;-56
2023/12/13 13:58:19;;;;;;;;;;;;;;;2.42;100.00;99923.54;110093;1279;23565;-56
2023/12/13 14:00:46;;;;;;;;;;;;;;;2.39;100.00;99927.45;110061;1279;22517;-48
2023/12/13 14:03:13;;;;;;;;;;;;;;;2.35;100.00;99928.52;110039;1264;22547;-55
2023/12/13 14:05:40;;;;;;;;;;;;;;;2.34;100.00;99927.63;110138;1268;22494;-56
2023/12/13 14:08:09;;;;;;;;;;;;;;;2.34;100.00;99929.54;109285;1269;23310;-56
2023/12/13 14:10:36;;;;;;;;;;;;;;;2.35;100.00;99927.14;108921;1278;22592;-48
2023/12/13 14:13:02;;;;;;;;;;;;;;;2.35;100.00;99928.00;110100;1268;22929;-56
2023/12/13 14:15:29;;;;;;;;;;;;;;;2.34;100.00;99928.16;110021;1279;23465;-51
2023/12/13 14:17:56;;;;;;;;;;;;;;;2.34;100.00;99933.15;110117;1279;22374;-54
2023/12/13 14:20:23;;;;;;;;;;;;;;;2.33;100.00;99936.05;108645;1266;22509;-48
2023/12/13 14:22:50;;;;;;;;;;;;;;;2.34;100.00;99928.51;109711;1279;23572;-56
2023/12/13 14:25:17;;;;;;;;;;;;;;;2.35;100.00;99930.09;110121;1279;23338;-48
2023/12/13 14:27:43;;;;;;;;;;;;;;;2.36;100.00;99933.02;110171;1278;23202;-56
2023/12/13 14:30:10;;;;;;;;;;;;;;;2.39;100.00;99934.66;109421;1266;22621;-56
2023/12/13 14:32:37;;;;;;;;;;;;;;;2.44;100.00;99930.99;108957;1279;23388;-56
2023/12/13 14:35:04;;;;;;;;;;;;;;;2.43;100.00;99932.02;109025;1265;22517;-55
2023/12/13 14:37:38;;;;;;;;;;;;;;;2.40;100.00;99935.38;110096;1279;22516;-54
2023/12/13 14:40:05;;;;;;;;;;;;;;;2.41;100.00;99932.30;109244;1279;22494;-56
2023/12/13 14:42:33;;;;;;;;;;;;;;;2.42;100.00;99937.64;109720;1278;22520;-56
2023/12/13 14:45:00;;;;;;;;;;;;;;;2.41;100.00;99937.81;107940;1272;22511;-47
2023/12/13 14:47:27;;;;;;;;;;;;;;;2.43;100.00;99941.30;108443;1279;22513;-54
2023/12/13 14:49:54;;;;;;;;;;;;;;;2.43;100.00;99944.55;109592;1268;22531;-48
2023/12/13 14:52:21;;;;;;;;;;;;;;;2.41;100.00;99948.98;107254;1279;23297;-48
2023/12/13 14:54:47;;;;;;;;;;;;;;;2.40;100.00;99945.88;108514;1271;22523;-56
2023/12/13 14:57:14;;;;;;;;;;;;;;;2.40;100.00;99946.73;107753;1278;22574;-48
2023/12/13 14:59:41;;;;;;;;;;;;;;;2.38;100.00;99951.33;107310;1278;22515;-56
2023/12/13 15:02:08;;;;;;;;;;;;;;;2.34;100.00;99954.15;107709;1265;22511;-56
2023/12/13 15:04:36;;;;;;;;;;;;;;;2.31;100.00;99955.95;107264;1269;24252;-55
2023/12/13 15:07:04;;;;;;;;;;;;;;;2.29;100.00;99958.31;107024;1278;22518;-55
2023/12/13 15:09:34;;;;;;;;;;;;;;;2.29;100.00;99956.59;107330;1278;25223;-48
2023/12/13 15:12:01;;;;;;;;;;;;;;;2.27;100.00;99958.25;106842;1280;22569;-48
2023/12/13 15:14:29;;;;;;;;;;;;;;;2.24;100.00;99965.05;107770;1279;23921;-51
2023/12/13 15:16:56;;;;;;;;;;;;;;;2.23;100.00;99967.27;106809;1280;22740;-53
2023/12/13 15:19:23;;;;;;;;;;;;;;;2.22;100.00;99965.00;106891;1271;24360;-55
2023/12/13 15:21:50;;;;;;;;;;;;;;;2.21;100.00;99969.60;107282;1268;22700;-56
